Time;durP1;ratioP1;P1;durP2;ratioP2;P2;SDS_P1;SDS_P2;PMS_P1;PMS_P2;Temp;Humidity;BMP_temperature;BMP_pressure;BME280_temperature;BME280_humidity;BME280_pressure;Samples;Min_cycle;Max_cycle;Signal;HPM_P1;HPM_P2
2022/07/17 00:01:17;;;;;;;1.80;1.30;;;;;;;;;;5054658;28;20261;-65
2022/07/17 00:03:46;;;;;;;2.20;1.20;;;;;;;;;;5023869;28;20245;-65
2022/07/17 00:06:18;;;;;;;1.73;1.20;;;;;;;;;;5029498;28;20249;-65
2022/07/17 00:08:49;;;;;;;2.20;1.20;;;;;;;;;;5055465;28;20205;-65
2022/07/17 00:11:21;;;;;;;2.00;1.40;;;;;;;;;;5056546;28;20183;-65
2022/07/17 00:13:51;;;;;;;1.63;1.10;;;;;;;;;;5051506;28;20357;-65
2022/07/17 00:16:21;;;;;;;1.83;1.40;;;;;;;;;;5026331;28;20242;-65
2022/07/17 00:18:52;;;;;;;2.23;1.37;;;;;;;;;;5045112;28;20203;-65
2022/07/17 00:21:22;;;;;;;1.80;1.57;;;;;;;;;;5047924;28;20190;-65
2022/07/17 00:23:52;;;;;;;3.37;1.33;;;;;;;;;;5028636;28;20202;-65
2022/07/17 00:26:23;;;;;;;1.30;1.07;;;;;;;;;;5048616;28;20206;-65
2022/07/17 00:28:54;;;;;;;1.30;1.10;;;;;;;;;;5041019;28;20213;-65
2022/07/17 00:31:25;;;;;;;1.83;1.23;;;;;;;;;;5050042;28;20206;-65
2022/07/17 00:33:57;;;;;;;1.80;1.30;;;;;;;;;;5046334;28;20201;-65
2022/07/17 00:36:27;;;;;;;1.63;1.10;;;;;;;;;;5056845;28;20223;-65
2022/07/17 00:38:59;;;;;;;2.20;1.03;;;;;;;;;;5057058;28;20189;-65
2022/07/17 00:41:30;;;;;;;1.67;1.20;;;;;;;;;;5034749;28;20198;-65
2022/07/17 00:44:11;;;;;;;3.00;1.30;;;;;;;;;;5048392;28;20206;-64
2022/07/17 00:46:44;;;;;;;2.07;1.20;;;;;;;;;;5035896;28;20248;-65
2022/07/17 00:49:14;;;;;;;2.80;1.20;;;;;;;;;;5048421;28;20226;-65
2022/07/17 00:51:48;;;;;;;1.47;1.20;;;;;;;;;;5051116;28;20190;-65
2022/07/17 00:54:45;;;;;;;2.73;1.43;;;;;;;;;;5054577;28;20243;-65
2022/07/17 00:57:34;;;;;;;2.27;1.10;;;;;;;;;;5040798;28;20190;-65
2022/07/17 01:00:09;;;;;;;1.63;1.37;;;;;;;;;;5051025;28;20618;-65
2022/07/17 01:02:47;;;;;;;1.53;1.20;;;;;;;;;;5049229;28;20211;-65
2022/07/17 01:05:19;;;;;;;2.40;1.20;;;;;;;;;;5051432;28;20303;-65
2022/07/17 01:07:50;;;;;;;2.20;1.30;;;;;;;;;;5058928;28;20201;-65
2022/07/17 01:10:23;;;;;;;1.70;1.20;;;;;;;;;;5064748;28;20196;-65
2022/07/17 01:12:51;;;;;;;2.03;1.10;;;;;;;;;;5053990;28;20219;-65
2022/07/17 01:15:23;;;;;;;2.33;1.13;;;;;;;;;;5061129;28;20198;-65
2022/07/17 01:17:59;;;;;;;2.17;1.33;;;;;;;;;;5046163;28;20214;-65
2022/07/17 01:20:32;;;;;;;2.70;1.40;;;;;;;;;;5019337;28;20219;-65
2022/07/17 01:23:07;;;;;;;2.23;1.27;;;;;;;;;;5044953;28;20206;-65
2022/07/17 01:25:40;;;;;;;1.40;1.30;;;;;;;;;;5057100;28;20236;-64
2022/07/17 01:28:12;;;;;;;1.57;1.17;;;;;;;;;;5039038;28;20210;-64
2022/07/17 01:30:48;;;;;;;1.60;1.10;;;;;;;;;;5049818;28;20216;-65
2022/07/17 01:33:20;;;;;;;1.73;1.30;;;;;;;;;;5029525;28;20252;-64
2022/07/17 01:35:53;;;;;;;1.60;1.07;;;;;;;;;;5044130;28;20241;-64
2022/07/17 01:38:26;;;;;;;1.20;1.10;;;;;;;;;;5047624;28;20205;-64
2022/07/17 01:40:56;;;;;;;2.07;1.13;;;;;;;;;;5062731;28;20221;-64
2022/07/17 01:43:36;;;;;;;1.20;1.10;;;;;;;;;;5064276;28;20201;-64
2022/07/17 01:46:03;;;;;;;1.67;1.30;;;;;;;;;;5065848;28;20690;-64
2022/07/17 01:48:34;;;;;;;1.40;1.00;;;;;;;;;;5039103;28;20635;-64
2022/07/17 01:51:04;;;;;;;3.57;1.40;;;;;;;;;;5056419;28;20237;-64
2022/07/17 01:53:35;;;;;;;1.63;1.20;;;;;;;;;;5055574;28;20222;-64
2022/07/17 01:56:03;;;;;;;1.33;0.93;;;;;;;;;;5035263;28;20611;-64
2022/07/17 01:58:38;;;;;;;1.87;1.17;;;;;;;;;;5039260;28;20194;-65
2022/07/17 02:01:09;;;;;;;2.30;1.03;;;;;;;;;;5032841;28;20218;-64
2022/07/17 02:03:39;;;;;;;1.33;1.13;;;;;;;;;;5048529;28;20228;-65
2022/07/17 02:06:10;;;;;;;2.13;1.20;;;;;;;;;;5042505;28;20812;-64
2022/07/17 02:08:44;;;;;;;1.50;1.00;;;;;;;;;;5048546;28;20554;-64
2022/07/17 02:11:16;;;;;;;1.70;0.93;;;;;;;;;;5056329;28;20344;-64
2022/07/17 02:13:48;;;;;;;3.70;1.10;;;;;;;;;;5026947;28;20210;-64
2022/07/17 02:16:20;;;;;;;2.83;1.30;;;;;;;;;;5044755;28;20706;-64
2022/07/17 02:18:53;;;;;;;1.50;1.17;;;;;;;;;;5049037;28;20280;-64
2022/07/17 02:21:33;;;;;;;2.27;1.30;;;;;;;;;;5052259;28;20214;-64
2022/07/17 02:24:06;;;;;;;1.27;1.03;;;;;;;;;;5054974;28;20241;-64
2022/07/17 02:26:38;;;;;;;1.30;1.00;;;;;;;;;;5060530;28;20201;-64
2022/07/17 02:29:09;;;;;;;1.17;1.07;;;;;;;;;;5037108;28;20214;-64
2022/07/17 02:31:44;;;;;;;1.63;1.00;;;;;;;;;;5013604;28;20697;-64
2022/07/17 02:34:14;;;;;;;2.83;1.10;;;;;;;;;;5045350;28;20822;-64
2022/07/17 02:36:43;;;;;;;1.53;1.10;;;;;;;;;;5060751;28;20222;-64
2022/07/17 02:39:15;;;;;;;1.13;0.90;;;;;;;;;;5056648;28;20214;-64
2022/07/17 02:41:46;;;;;;;3.67;1.20;;;;;;;;;;5033539;28;20601;-64
2022/07/17 02:44:16;;;;;;;2.07;1.23;;;;;;;;;;5055728;28;20833;-64
2022/07/17 02:47:00;;;;;;;1.73;1.10;;;;;;;;;;5050752;28;20698;-64
2022/07/17 02:49:31;;;;;;;1.30;0.90;;;;;;;;;;5050514;28;20237;-64
2022/07/17 02:51:59;;;;;;;1.50;1.10;;;;;;;;;;5056308;28;20253;-64
2022/07/17 02:54:29;;;;;;;1.67;1.20;;;;;;;;;;5059108;28;20234;-64
2022/07/17 02:56:57;;;;;;;1.50;1.20;;;;;;;;;;5060718;28;20196;-64
2022/07/17 02:59:29;;;;;;;1.33;1.10;;;;;;;;;;5049943;28;20195;-64
2022/07/17 03:01:56;;;;;;;2.30;1.20;;;;;;;;;;5049756;28;20218;-64
2022/07/17 03:04:27;;;;;;;1.50;1.00;;;;;;;;;;5021575;28;20195;-64
2022/07/17 03:06:58;;;;;;;1.13;0.80;;;;;;;;;;5033756;28;20198;-64
2022/07/17 03:09:28;;;;;;;2.20;1.10;;;;;;;;;;5033590;28;20281;-64
2022/07/17 03:11:58;;;;;;;1.90;1.07;;;;;;;;;;5061661;28;20263;-64
2022/07/17 03:14:27;;;;;;;1.90;1.20;;;;;;;;;;5049283;28;20655;-64
2022/07/17 03:16:54;;;;;;;1.13;1.03;;;;;;;;;;5045892;28;20210;-64
2022/07/17 03:19:25;;;;;;;1.73;1.00;;;;;;;;;;5049747;28;20550;-64
2022/07/17 03:21:57;;;;;;;1.77;1.13;;;;;;;;;;5046816;28;20206;-64
2022/07/17 03:24:29;;;;;;;2.10;1.03;;;;;;;;;;5042337;28;20710;-64
2022/07/17 03:26:59;;;;;;;1.50;1.20;;;;;;;;;;5049380;28;20208;-64
2022/07/17 03:29:32;;;;;;;2.10;1.30;;;;;;;;;;5045917;28;20241;-64
2022/07/17 03:32:04;;;;;;;1.90;1.10;;;;;;;;;;5048254;28;20203;-64
2022/07/17 03:34:36;;;;;;;1.07;0.87;;;;;;;;;;5063018;28;20229;-64
2022/07/17 03:37:08;;;;;;;1.67;1.20;;;;;;;;;;5049619;28;20228;-64
2022/07/17 03:39:39;;;;;;;1.33;1.03;;;;;;;;;;5015396;28;20194;-64
2022/07/17 03:42:15;;;;;;;1.83;1.07;;;;;;;;;;5014953;28;20866;-64
2022/07/17 03:44:56;;;;;;;1.40;1.10;;;;;;;;;;5038857;28;20198;-64
2022/07/17 03:47:27;;;;;;;2.10;1.27;;;;;;;;;;5056747;28;20208;-64
2022/07/17 03:50:01;;;;;;;5.80;1.80;;;;;;;;;;5049864;28;20229;-64
2022/07/17 03:52:32;;;;;;;2.40;1.20;;;;;;;;;;5058987;28;20233;-64
2022/07/17 03:55:11;;;;;;;1.50;1.10;;;;;;;;;;5032954;28;20206;-64
2022/07/17 03:57:43;;;;;;;2.20;1.10;;;;;;;;;;5037215;28;20197;-64
2022/07/17 04:00:17;;;;;;;0.90;0.90;;;;;;;;;;5036862;28;20481;-64
2022/07/17 04:02:48;;;;;;;1.20;1.03;;;;;;;;;;5042887;28;20627;-65
2022/07/17 04:05:33;;;;;;;1.77;1.20;;;;;;;;;;5056942;28;20260;-64
2022/07/17 04:08:03;;;;;;;1.20;0.90;;;;;;;;;;5055428;28;20263;-64
2022/07/17 04:10:39;;;;;;;1.43;1.00;;;;;;;;;;5066326;28;20208;-65
2022/07/17 04:13:07;;;;;;;1.23;0.80;;;;;;;;;;5053673;28;20218;-64
2022/07/17 04:15:49;;;;;;;1.50;1.10;;;;;;;;;;5042817;28;20447;-62
2022/07/17 04:18:33;;;;;;;2.07;1.20;;;;;;;;;;5045777;28;20195;-62
2022/07/17 04:21:04;;;;;;;1.27;0.90;;;;;;;;;;5048936;28;20772;-64
2022/07/17 04:23:37;;;;;;;1.10;1.00;;;;;;;;;;5033446;28;20196;-64
2022/07/17 04:26:08;;;;;;;1.13;1.03;;;;;;;;;;5048790;28;20198;-62
2022/07/17 04:28:39;;;;;;;1.37;1.00;;;;;;;;;;5045318;28;20229;-62
2022/07/17 04:31:10;;;;;;;2.10;1.23;;;;;;;;;;5048613;28;20233;-64
2022/07/17 04:33:42;;;;;;;1.30;1.00;;;;;;;;;;5045392;28;20556;-64
2022/07/17 04:36:11;;;;;;;2.23;1.00;;;;;;;;;;5048222;28;20186;-62
2022/07/17 04:38:43;;;;;;;2.10;1.00;;;;;;;;;;5054459;28;20544;-62
2022/07/17 04:41:13;;;;;;;1.53;0.90;;;;;;;;;;5045913;28;20198;-65
2022/07/17 04:43:45;;;;;;;1.70;0.87;;;;;;;;;;5065647;28;20205;-64
2022/07/17 04:46:14;;;;;;;1.93;0.80;;;;;;;;;;5048267;28;20186;-62
2022/07/17 04:48:46;;;;;;;3.83;1.20;;;;;;;;;;5031130;28;20210;-63
2022/07/17 04:51:16;;;;;;;1.50;1.17;;;;;;;;;;5047156;28;20592;-63
2022/07/17 04:53:48;;;;;;;1.33;1.10;;;;;;;;;;5047461;28;20280;-63
2022/07/17 04:56:20;;;;;;;1.53;1.30;;;;;;;;;;5054118;28;20213;-63
2022/07/17 04:58:52;;;;;;;1.57;0.90;;;;;;;;;;5053057;28;20192;-63
2022/07/17 05:01:23;;;;;;;1.83;1.00;;;;;;;;;;5045802;28;20358;-64
2022/07/17 05:03:56;;;;;;;1.60;0.87;;;;;;;;;;5054605;28;20237;-64
2022/07/17 05:06:26;;;;;;;1.17;0.87;;;;;;;;;;5060091;28;20201;-64
2022/07/17 05:08:58;;;;;;;1.90;1.07;;;;;;;;;;5053876;28;20212;-64
2022/07/17 05:11:29;;;;;;;1.10;0.93;;;;;;;;;;5057038;28;20187;-63
2022/07/17 05:14:02;;;;;;;2.53;1.10;;;;;;;;;;5054486;28;20217;-63
2022/07/17 05:16:32;;;;;;;1.47;1.00;;;;;;;;;;5042651;28;20202;-63
2022/07/17 05:19:05;;;;;;;1.10;0.90;;;;;;;;;;5057072;28;20186;-63
2022/07/17 05:21:36;;;;;;;1.10;0.90;;;;;;;;;;5057812;28;20194;-65
2022/07/17 05:24:11;;;;;;;1.60;1.00;;;;;;;;;;5049476;28;20263;-64
2022/07/17 05:26:42;;;;;;;1.00;0.90;;;;;;;;;;5062793;28;20197;-65
2022/07/17 05:29:17;;;;;;;1.57;1.00;;;;;;;;;;5029899;28;20198;-65
2022/07/17 05:31:46;;;;;;;1.40;1.10;;;;;;;;;;5062623;28;20201;-65
2022/07/17 05:34:15;;;;;;;3.00;1.10;;;;;;;;;;5059689;28;20214;-65
2022/07/17 05:36:46;;;;;;;3.20;1.00;;;;;;;;;;5047306;28;20201;-63
2022/07/17 05:39:14;;;;;;;1.27;0.80;;;;;;;;;;5052398;28;20250;-63
2022/07/17 05:41:46;;;;;;;1.00;0.83;;;;;;;;;;5042648;28;20208;-63
2022/07/17 05:44:17;;;;;;;1.37;1.10;;;;;;;;;;5046807;28;20202;-63
2022/07/17 05:46:48;;;;;;;1.73;0.80;;;;;;;;;;5047428;28;20251;-63
2022/07/17 05:49:19;;;;;;;1.47;1.03;;;;;;;;;;5047501;28;20247;-63
2022/07/17 05:51:49;;;;;;;3.10;1.30;;;;;;;;;;5045676;28;20659;-63
2022/07/17 05:54:20;;;;;;;2.13;1.30;;;;;;;;;;5053803;28;20297;-63
2022/07/17 05:56:51;;;;;;;1.60;0.90;;;;;;;;;;5058869;28;20202;-62
2022/07/17 05:59:21;;;;;;;1.87;1.10;;;;;;;;;;5050039;28;20237;-62
2022/07/17 06:01:52;;;;;;;1.30;1.10;;;;;;;;;;5055369;28;20541;-65
2022/07/17 06:04:21;;;;;;;2.17;1.10;;;;;;;;;;5052612;28;20541;-65
2022/07/17 06:06:52;;;;;;;2.03;1.13;;;;;;;;;;5064828;28;20631;-62
2022/07/17 06:09:24;;;;;;;1.63;1.07;;;;;;;;;;5062666;28;20190;-62
2022/07/17 06:11:55;;;;;;;1.53;1.10;;;;;;;;;;5061158;28;20267;-65
2022/07/17 06:14:25;;;;;;;1.80;1.00;;;;;;;;;;5031081;28;20206;-65
2022/07/17 06:16:57;;;;;;;1.83;1.00;;;;;;;;;;5060039;28;20294;-65
2022/07/17 06:19:29;;;;;;;1.00;0.90;;;;;;;;;;5060915;28;20507;-65
2022/07/17 06:22:01;;;;;;;3.00;1.23;;;;;;;;;;5065028;28;20208;-65
2022/07/17 06:24:31;;;;;;;0.93;0.80;;;;;;;;;;5045373;28;20194;-65
2022/07/17 06:27:00;;;;;;;0.93;0.83;;;;;;;;;;5041456;28;20239;-65
2022/07/17 06:29:36;;;;;;;0.90;0.80;;;;;;;;;;5053767;28;20225;-65
2022/07/17 06:32:09;;;;;;;2.13;1.27;;;;;;;;;;5038882;28;20252;-63
2022/07/17 06:34:41;;;;;;;1.13;0.83;;;;;;;;;;5041884;28;20210;-63
2022/07/17 06:37:12;;;;;;;1.10;0.90;;;;;;;;;;5057758;28;20463;-65
2022/07/17 06:39:44;;;;;;;1.10;0.90;;;;;;;;;;5033115;28;20183;-65
2022/07/17 06:42:13;;;;;;;1.17;0.90;;;;;;;;;;5048879;28;20365;-65
2022/07/17 06:44:45;;;;;;;1.30;1.10;;;;;;;;;;5050110;28;20564;-65
2022/07/17 06:47:15;;;;;;;1.20;0.87;;;;;;;;;;5041929;28;20222;-63
2022/07/17 06:49:45;;;;;;;2.17;0.97;;;;;;;;;;5056774;28;20232;-63
2022/07/17 06:52:15;;;;;;;1.10;1.00;;;;;;;;;;5060388;28;20398;-62
2022/07/17 06:54:59;;;;;;;1.57;1.00;;;;;;;;;;5063255;28;20662;-63
2022/07/17 06:57:29;;;;;;;1.87;1.10;;;;;;;;;;5059584;28;20185;-63
2022/07/17 07:00:12;;;;;;;1.10;1.00;;;;;;;;;;5065147;28;20189;-63
2022/07/17 07:02:44;;;;;;;1.47;1.03;;;;;;;;;;5068044;28;20232;-63
2022/07/17 07:05:18;;;;;;;1.50;0.90;;;;;;;;;;5051787;28;20358;-64
2022/07/17 07:07:49;;;;;;;1.73;1.20;;;;;;;;;;5061170;28;20189;-65
2022/07/17 07:10:20;;;;;;;1.47;1.00;;;;;;;;;;5049293;28;20685;-65
2022/07/17 07:12:52;;;;;;;1.07;0.90;;;;;;;;;;5050925;28;20201;-65
2022/07/17 07:15:24;;;;;;;1.30;1.00;;;;;;;;;;5067617;28;20217;-65
2022/07/17 07:17:56;;;;;;;2.07;1.07;;;;;;;;;;5042251;28;20221;-65
2022/07/17 07:20:36;;;;;;;1.47;1.13;;;;;;;;;;5060421;28;20190;-65
2022/07/17 07:23:06;;;;;;;2.07;1.13;;;;;;;;;;5055825;28;20194;-65
2022/07/17 07:25:38;;;;;;;1.73;1.20;;;;;;;;;;5064698;28;20555;-62
2022/07/17 07:28:09;;;;;;;1.40;0.90;;;;;;;;;;5051568;28;20216;-62
2022/07/17 07:30:38;;;;;;;2.10;1.23;;;;;;;;;;5067378;28;20198;-64
2022/07/17 07:33:08;;;;;;;1.50;1.10;;;;;;;;;;5049109;28;20209;-65
2022/07/17 07:35:45;;;;;;;1.63;1.17;;;;;;;;;;5050562;28;20671;-65
2022/07/17 07:38:14;;;;;;;1.73;1.00;;;;;;;;;;5052730;28;20182;-64
2022/07/17 07:40:44;;;;;;;2.03;1.10;;;;;;;;;;5048357;28;20221;-65
2022/07/17 07:43:16;;;;;;;1.63;1.10;;;;;;;;;;5057380;28;20580;-65
2022/07/17 07:45:47;;;;;;;1.63;1.20;;;;;;;;;;5036124;28;20587;-62
2022/07/17 07:48:20;;;;;;;2.17;1.40;;;;;;;;;;5049819;28;20199;-62
2022/07/17 07:50:50;;;;;;;1.10;0.80;;;;;;;;;;5048516;28;20676;-65
2022/07/17 07:53:19;;;;;;;1.50;1.20;;;;;;;;;;5045696;28;20245;-65
2022/07/17 07:55:56;;;;;;;2.63;1.53;;;;;;;;;;5046360;28;20190;-63
2022/07/17 07:58:28;;;;;;;4.63;1.60;;;;;;;;;;5050122;28;20186;-63
2022/07/17 08:01:00;;;;;;;2.13;1.20;;;;;;;;;;5037726;28;20194;-63
2022/07/17 08:03:30;;;;;;;2.13;1.37;;;;;;;;;;5047927;28;20627;-63
2022/07/17 08:06:01;;;;;;;2.57;1.60;;;;;;;;;;5049651;28;20603;-64
2022/07/17 08:08:30;;;;;;;3.43;1.57;;;;;;;;;;5031621;28;20209;-64
2022/07/17 08:11:08;;;;;;;2.20;1.13;;;;;;;;;;5032993;28;20202;-62
2022/07/17 08:13:40;;;;;;;2.70;1.40;;;;;;;;;;5047539;28;20708;-62
2022/07/17 08:16:12;;;;;;;3.90;1.57;;;;;;;;;;5043631;28;20232;-65
2022/07/17 08:18:46;;;;;;;3.17;1.73;;;;;;;;;;5040303;28;20210;-63
2022/07/17 08:21:18;;;;;;;6.13;1.50;;;;;;;;;;5052997;28;20261;-63
2022/07/17 08:23:50;;;;;;;6.13;1.40;;;;;;;;;;5056084;28;20194;-62
2022/07/17 08:26:22;;;;;;;5.47;1.77;;;;;;;;;;5057662;28;20198;-64
2022/07/17 08:28:55;;;;;;;9.60;2.07;;;;;;;;;;5032796;28;20295;-64
2022/07/17 08:31:25;;;;;;;7.23;1.43;;;;;;;;;;5055462;28;20281;-63
2022/07/17 08:33:55;;;;;;;7.00;1.80;;;;;;;;;;5048895;28;20191;-62
2022/07/17 08:36:33;;;;;;;5.27;1.70;;;;;;;;;;5039676;28;20202;-62
2022/07/17 08:39:04;;;;;;;5.10;1.80;;;;;;;;;;5051726;28;20264;-61
2022/07/17 08:41:38;;;;;;;3.77;1.70;;;;;;;;;;5051636;28;20559;-61
2022/07/17 08:44:10;;;;;;;2.83;1.50;;;;;;;;;;5034883;28;20202;-60
2022/07/17 08:46:39;;;;;;;3.97;1.97;;;;;;;;;;5032039;28;20209;-61
2022/07/17 08:49:09;;;;;;;6.83;2.10;;;;;;;;;;5048323;28;20242;-62
2022/07/17 08:51:42;;;;;;;6.07;2.03;;;;;;;;;;5052728;28;20279;-62
2022/07/17 08:54:33;;;;;;;9.00;1.97;;;;;;;;;;5042983;28;20214;-61
2022/07/17 08:57:04;;;;;;;4.43;1.73;;;;;;;;;;5051620;28;20199;-61
2022/07/17 08:59:36;;;;;;;6.77;1.87;;;;;;;;;;5057977;28;20282;-61
2022/07/17 09:02:06;;;;;;;4.97;1.60;;;;;;;;;;5028449;28;20195;-63
2022/07/17 09:04:40;;;;;;;5.00;1.80;;;;;;;;;;5042427;28;20222;-62
2022/07/17 09:07:15;;;;;;;6.07;1.60;;;;;;;;;;5038096;28;20210;-61
2022/07/17 09:09:50;;;;;;;4.17;1.80;;;;;;;;;;5040701;28;20240;-60
2022/07/17 09:12:30;;;;;;;4.33;1.60;;;;;;;;;;5059168;28;20193;-60
2022/07/17 09:15:13;;;;;;;5.40;1.77;;;;;;;;;;5047669;28;20218;-61
2022/07/17 09:17:54;;;;;;;3.20;1.80;;;;;;;;;;5010906;28;20186;-60
2022/07/17 09:20:25;;;;;;;3.70;1.40;;;;;;;;;;5054007;28;20190;-61
2022/07/17 09:22:58;;;;;;;3.20;1.80;;;;;;;;;;5057177;28;20201;-60
2022/07/17 09:25:40;;;;;;;4.97;2.00;;;;;;;;;;5030268;28;20365;-61
2022/07/17 09:28:16;;;;;;;4.30;1.87;;;;;;;;;;5025102;28;20218;-61
2022/07/17 09:30:51;;;;;;;1.77;1.40;;;;;;;;;;5048666;28;20218;-60
2022/07/17 09:33:22;;;;;;;7.13;2.20;;;;;;;;;;5025314;28;20202;-60
2022/07/17 09:35:53;;;;;;;2.87;1.70;;;;;;;;;;5026896;28;20213;-60
2022/07/17 09:38:40;;;;;;;5.20;1.80;;;;;;;;;;5012303;28;20203;-60
2022/07/17 09:41:25;;;;;;;3.23;1.83;;;;;;;;;;5043760;28;20250;-62
2022/07/17 09:44:02;;;;;;;2.10;1.47;;;;;;;;;;5030441;28;20198;-63
2022/07/17 09:46:39;;;;;;;4.10;1.70;;;;;;;;;;5046042;28;20251;-60
2022/07/17 09:49:16;;;;;;;22.87;7.43;;;;;;;;;;5047396;28;20229;-60
2022/07/17 09:51:49;;;;;;;23.77;7.60;;;;;;;;;;5023253;28;20845;-61
2022/07/17 09:54:23;;;;;;;19.20;6.83;;;;;;;;;;5047107;28;20206;-62
2022/07/17 09:57:01;;;;;;;19.43;6.67;;;;;;;;;;5046890;28;20206;-62
2022/07/17 09:59:45;;;;;;;14.23;5.77;;;;;;;;;;5044844;28;20210;-63
2022/07/17 10:02:17;;;;;;;14.40;5.57;;;;;;;;;;5055050;28;20190;-63
2022/07/17 10:04:49;;;;;;;13.60;4.83;;;;;;;;;;5024218;28;20210;-62
2022/07/17 10:07:19;;;;;;;12.47;4.70;;;;;;;;;;5050837;28;20212;-62
2022/07/17 10:09:58;;;;;;;10.87;4.23;;;;;;;;;;5026637;28;20362;-62
2022/07/17 10:12:29;;;;;;;12.10;4.77;;;;;;;;;;5032927;28;20651;-62
2022/07/17 10:15:01;;;;;;;10.87;4.07;;;;;;;;;;5053614;28;20267;-62
2022/07/17 10:17:31;;;;;;;9.43;3.77;;;;;;;;;;5048129;28;20211;-62
2022/07/17 10:20:06;;;;;;;9.67;3.70;;;;;;;;;;5009319;28;20229;-62
2022/07/17 10:22:43;;;;;;;7.57;3.20;;;;;;;;;;5048242;28;20195;-62
2022/07/17 10:25:16;;;;;;;8.27;3.40;;;;;;;;;;5045959;28;20800;-62
2022/07/17 10:27:55;;;;;;;7.07;3.30;;;;;;;;;;5022086;28;20197;-62
2022/07/17 10:30:27;;;;;;;7.07;2.97;;;;;;;;;;5032139;28;20281;-62
2022/07/17 10:33:04;;;;;;;7.30;2.93;;;;;;;;;;5044887;28;20206;-62
2022/07/17 10:35:47;;;;;;;6.77;2.97;;;;;;;;;;5029958;28;20210;-61
2022/07/17 10:38:23;;;;;;;5.37;2.67;;;;;;;;;;5029721;28;20198;-61
2022/07/17 10:41:18;;;;;;;4.73;2.50;;;;;;;;;;5049089;28;20217;-62
2022/07/17 10:43:51;;;;;;;6.37;2.43;;;;;;;;;;5046507;28;20183;-62
2022/07/17 10:46:24;;;;;;;6.10;2.53;;;;;;;;;;5049233;28;20203;-62
2022/07/17 10:48:55;;;;;;;4.77;2.57;;;;;;;;;;5047825;28;20210;-62
2022/07/17 10:51:32;;;;;;;5.23;2.87;;;;;;;;;;5052768;28;20672;-60
2022/07/17 10:54:03;;;;;;;3.70;2.17;;;;;;;;;;5049366;28;20202;-68
2022/07/17 10:56:40;;;;;;;3.33;2.20;;;;;;;;;;5046924;28;20225;-62
2022/07/17 10:59:13;;;;;;;3.83;2.17;;;;;;;;;;5030899;28;20197;-62
2022/07/17 11:01:43;;;;;;;2.83;1.73;;;;;;;;;;5033859;28;20197;-62
2022/07/17 11:04:11;;;;;;;3.80;2.00;;;;;;;;;;5047311;28;20660;-62
2022/07/17 11:06:41;;;;;;;3.00;1.83;;;;;;;;;;5044760;28;20273;-61
2022/07/17 11:09:14;;;;;;;4.90;1.73;;;;;;;;;;5049248;28;20202;-61
2022/07/17 11:11:49;;;;;;;3.13;1.90;;;;;;;;;;5048860;28;20189;-62
2022/07/17 11:14:21;;;;;;;3.40;1.70;;;;;;;;;;5054096;28;20206;-62
2022/07/17 11:17:02;;;;;;;2.50;1.60;;;;;;;;;;5035163;28;20214;-62
2022/07/17 11:19:38;;;;;;;2.07;1.30;;;;;;;;;;5025520;28;20190;-62
2022/07/17 11:22:13;;;;;;;3.60;1.60;;;;;;;;;;5052075;28;20659;-63
2022/07/17 11:24:50;;;;;;;2.67;1.50;;;;;;;;;;5019046;28;20213;-62
2022/07/17 11:27:30;;;;;;;2.67;1.50;;;;;;;;;;5031611;28;20202;-62
2022/07/17 11:30:00;;;;;;;3.03;1.43;;;;;;;;;;5045872;28;20220;-62
2022/07/17 11:32:38;;;;;;;2.90;1.60;;;;;;;;;;5038207;28;20208;-61
2022/07/17 11:35:21;;;;;;;2.80;1.10;;;;;;;;;;5038128;28;20698;-62
2022/07/17 11:38:10;;;;;;;2.37;1.40;;;;;;;;;;5044669;28;20213;-62
2022/07/17 11:40:52;;;;;;;2.17;1.13;;;;;;;;;;5029083;28;20203;-62
2022/07/17 11:43:29;;;;;;;2.77;1.40;;;;;;;;;;5051090;28;20327;-62
2022/07/17 11:46:02;;;;;;;3.13;1.40;;;;;;;;;;5037301;28;20194;-63
2022/07/17 11:48:33;;;;;;;2.57;1.23;;;;;;;;;;5031105;28;20216;-62
2022/07/17 11:51:08;;;;;;;1.53;1.30;;;;;;;;;;5030874;28;20252;-62
2022/07/17 11:53:40;;;;;;;2.30;1.33;;;;;;;;;;5052230;28;20675;-62
2022/07/17 11:56:20;;;;;;;2.63;1.40;;;;;;;;;;5040514;28;20213;-62
2022/07/17 11:58:53;;;;;;;2.13;1.30;;;;;;;;;;5038868;28;20189;-62
2022/07/17 12:01:33;;;;;;;2.03;1.30;;;;;;;;;;5031677;28;20198;-62
2022/07/17 12:04:04;;;;;;;1.27;1.00;;;;;;;;;;5044026;28;20206;-62
2022/07/17 12:06:43;;;;;;;2.53;1.20;;;;;;;;;;5031526;28;20198;-62
2022/07/17 12:09:12;;;;;;;2.07;1.20;;;;;;;;;;5030263;28;20627;-62
2022/07/17 12:11:50;;;;;;;2.60;1.13;;;;;;;;;;5044026;28;20201;-62
2022/07/17 12:14:18;;;;;;;1.30;1.10;;;;;;;;;;5029632;28;20937;-62
2022/07/17 12:16:50;;;;;;;1.10;0.93;;;;;;;;;;5028660;28;20615;-62
2022/07/17 12:19:28;;;;;;;1.77;1.27;;;;;;;;;;5049301;28;20651;-62
2022/07/17 12:22:05;;;;;;;2.03;1.33;;;;;;;;;;5048047;28;20661;-62
2022/07/17 12:24:44;;;;;;;1.90;1.13;;;;;;;;;;5029647;28;20208;-62
2022/07/17 12:27:17;;;;;;;2.23;1.10;;;;;;;;;;5047745;28;20721;-62
2022/07/17 12:29:51;;;;;;;1.43;1.00;;;;;;;;;;5042021;28;20232;-62
2022/07/17 12:32:42;;;;;;;3.30;1.30;;;;;;;;;;5029511;28;20206;-62
2022/07/17 12:35:14;;;;;;;1.70;1.00;;;;;;;;;;5031056;28;20716;-62
2022/07/17 12:37:46;;;;;;;1.33;1.20;;;;;;;;;;5027660;28;20808;-62
2022/07/17 12:40:16;;;;;;;1.30;1.20;;;;;;;;;;5042437;28;20210;-62
2022/07/17 12:42:47;;;;;;;2.23;1.20;;;;;;;;;;5052113;28;20194;-62
2022/07/17 12:45:21;;;;;;;3.30;1.10;;;;;;;;;;5031052;28;20210;-62
2022/07/17 12:47:51;;;;;;;1.63;1.00;;;;;;;;;;5026209;28;20214;-62
2022/07/17 12:50:21;;;;;;;1.40;1.10;;;;;;;;;;5047173;28;20265;-62
2022/07/17 12:52:50;;;;;;;1.33;1.10;;;;;;;;;;5035209;28;20211;-62
2022/07/17 12:55:30;;;;;;;2.17;1.20;;;;;;;;;;5047997;28;20255;-61
2022/07/17 12:58:07;;;;;;;1.67;1.13;;;;;;;;;;5048155;28;20224;-61
2022/07/17 13:00:38;;;;;;;1.37;1.20;;;;;;;;;;5046485;28;20190;-62
2022/07/17 13:03:15;;;;;;;1.43;1.00;;;;;;;;;;5048507;28;20248;-62
2022/07/17 13:05:44;;;;;;;2.93;1.30;;;;;;;;;;5040555;28;20828;-62
2022/07/17 13:08:14;;;;;;;1.63;1.07;;;;;;;;;;5052652;28;20327;-62
2022/07/17 13:10:46;;;;;;;1.97;0.97;;;;;;;;;;5017568;28;20259;-62
2022/07/17 13:13:16;;;;;;;1.37;1.20;;;;;;;;;;5049505;28;20197;-62
2022/07/17 13:15:47;;;;;;;1.80;1.17;;;;;;;;;;5041994;28;20202;-63
2022/07/17 13:18:19;;;;;;;1.50;1.20;;;;;;;;;;5048336;28;20276;-62
2022/07/17 13:20:52;;;;;;;2.63;1.30;;;;;;;;;;5047003;28;20300;-63
2022/07/17 13:23:29;;;;;;;1.27;0.93;;;;;;;;;;5040529;28;20225;-62
2022/07/17 13:25:58;;;;;;;4.10;1.37;;;;;;;;;;5028976;28;20259;-61
2022/07/17 13:28:30;;;;;;;2.20;1.10;;;;;;;;;;5026937;28;20283;-62
2022/07/17 13:31:04;;;;;;;1.43;1.20;;;;;;;;;;5047073;28;20205;-62
2022/07/17 13:33:34;;;;;;;1.47;1.20;;;;;;;;;;5045577;28;20627;-62
2022/07/17 13:36:05;;;;;;;1.67;1.20;;;;;;;;;;5048176;28;20635;-61
2022/07/17 13:38:36;;;;;;;2.27;1.27;;;;;;;;;;5047788;28;20220;-61
2022/07/17 13:41:08;;;;;;;3.93;1.10;;;;;;;;;;5042955;28;20547;-62
2022/07/17 13:43:40;;;;;;;2.00;1.13;;;;;;;;;;5027919;28;20201;-62
2022/07/17 13:46:09;;;;;;;1.33;1.10;;;;;;;;;;5028781;28;20201;-62
2022/07/17 13:48:39;;;;;;;1.63;1.10;;;;;;;;;;5035250;28;20203;-62
2022/07/17 13:51:10;;;;;;;1.50;1.37;;;;;;;;;;5048714;28;20745;-62
2022/07/17 13:53:43;;;;;;;2.20;1.10;;;;;;;;;;5032538;28;20222;-62
2022/07/17 13:56:16;;;;;;;1.77;1.03;;;;;;;;;;5031670;28;20300;-62
2022/07/17 13:58:47;;;;;;;1.13;0.90;;;;;;;;;;5056867;28;20197;-62
2022/07/17 14:01:18;;;;;;;1.67;1.10;;;;;;;;;;5051094;28;20700;-62
2022/07/17 14:03:51;;;;;;;1.63;1.20;;;;;;;;;;5039502;28;20202;-62
2022/07/17 14:06:23;;;;;;;2.50;1.20;;;;;;;;;;5030205;28;20201;-62
2022/07/17 14:08:56;;;;;;;1.87;1.20;;;;;;;;;;5052085;28;20259;-62
2022/07/17 14:11:28;;;;;;;2.50;1.43;;;;;;;;;;5027335;28;20615;-62
2022/07/17 14:14:00;;;;;;;1.63;1.30;;;;;;;;;;5038081;28;20243;-62
2022/07/17 14:16:28;;;;;;;1.87;1.17;;;;;;;;;;5049087;28;20233;-62
2022/07/17 14:18:59;;;;;;;2.53;1.20;;;;;;;;;;5049363;28;20213;-62
2022/07/17 14:21:42;;;;;;;1.87;1.20;;;;;;;;;;5051485;28;20267;-62
2022/07/17 14:24:12;;;;;;;1.87;1.10;;;;;;;;;;5052482;28;20811;-62
2022/07/17 14:26:48;;;;;;;2.63;1.37;;;;;;;;;;5051385;28;20713;-61
2022/07/17 14:29:21;;;;;;;1.50;1.20;;;;;;;;;;5051180;28;20214;-61
2022/07/17 14:31:54;;;;;;;1.67;1.00;;;;;;;;;;5045904;28;20194;-62
2022/07/17 14:34:23;;;;;;;1.20;1.10;;;;;;;;;;5062502;28;20560;-62
2022/07/17 14:36:53;;;;;;;1.70;1.00;;;;;;;;;;5053990;28;20225;-62
2022/07/17 14:39:30;;;;;;;2.67;1.30;;;;;;;;;;5049564;28;20206;-62
2022/07/17 14:42:01;;;;;;;1.67;0.97;;;;;;;;;;5048324;28;20202;-62
2022/07/17 14:44:33;;;;;;;2.00;1.40;;;;;;;;;;5050550;28;20698;-62
2022/07/17 14:47:08;;;;;;;2.13;1.33;;;;;;;;;;5052052;28;20197;-62
2022/07/17 14:49:43;;;;;;;1.67;1.53;;;;;;;;;;5047719;28;20671;-62
2022/07/17 14:52:27;;;;;;;2.73;1.70;;;;;;;;;;5027880;28;20222;-62
2022/07/17 14:54:59;;;;;;;1.30;1.13;;;;;;;;;;5049408;28;20195;-63
2022/07/17 14:57:30;;;;;;;1.60;1.30;;;;;;;;;;5050325;28;20217;-61
2022/07/17 15:00:04;;;;;;;2.83;1.20;;;;;;;;;;5044003;28;20205;-64
2022/07/17 15:02:35;;;;;;;1.63;1.23;;;;;;;;;;5049289;28;20226;-63
2022/07/17 15:05:07;;;;;;;1.83;1.40;;;;;;;;;;5045925;28;20233;-63
2022/07/17 15:07:38;;;;;;;2.50;1.70;;;;;;;;;;5050935;28;20217;-61
2022/07/17 15:10:08;;;;;;;2.00;1.20;;;;;;;;;;5016585;28;20307;-62
2022/07/17 15:12:38;;;;;;;2.73;1.37;;;;;;;;;;5038257;28;20218;-62
2022/07/17 15:15:09;;;;;;;1.27;1.10;;;;;;;;;;5046877;28;20405;-62
2022/07/17 15:17:39;;;;;;;2.47;1.10;;;;;;;;;;5023967;28;20242;-62